Welcome to Northern Hawkes Bay. New Zealand.
PWS Header
      nz Flag



Hit Counter


W3C Valid W3C Valid logo


    Wairoa

Select any of the Stations below to visit their websites.










Historic Data from Weather Underground
Select the location of interest below. Wairoa is the default. Please have patience, this Data is slow to load in.
Northern Hawkes Bay Historical Data
Daily Summary for June 27, 2017 Units:  Metric    English   Both
« Previous Day
Next Day »
Daily Weekly Monthly Yearly Custom
  High: Low: Average:
Temperature: 14.5 °C 6.3 °C 9.6 °C
Dew Point: 10.7 °C 6.0 °C 8.4 °C
Humidity: 99% 68% 93%
Wind Speed: 15.8km/h 0.0km/h 3.8km/h
Wind Gust: 24.5km/h - -
Wind- - WSW
Pressure: 1020.5 hPa 1015.8 hPa -
Precipitation: 3.0 mm    
Historical Graphs
 
 
Tabular Data for June 27, 2017
Time Temperature Dew Point Pressure Wind Wind Speed Wind Gust Humidity Rainfall Rate (Hourly) solar
00:03 9.9 °C 9.8 °C 1016.1 hPa West 7.2 km/h 17.2 km/h 99% 0.0 mm 0 W/m2
00:08 9.9 °C 9.8 °C 1015.8 hPa WSW 7.2 km/h 19.5 km/h 99% 0.0 mm 0 W/m2
00:13 9.8 °C 9.7 °C 1016.1 hPa WSW 8.7 km/h 23.3 km/h 99% 0.0 mm 0 W/m2
00:18 9.8 °C 9.7 °C 1016.1 hPa WSW 7.2 km/h 23.3 km/h 99% 0.0 mm 0 W/m2
00:23 9.8 °C 9.7 °C 1016.1 hPa West 7.2 km/h 19.5 km/h 99% 0.0 mm 0 W/m2
00:28 9.9 °C 9.8 °C 1015.8 hPa West 7.2 km/h 19.5 km/h 99% 0.0 mm 0 W/m2
00:33 9.9 °C 9.8 °C 1016.1 hPa WSW 14.8 km/h 19.5 km/h 99% 0.0 mm 0 W/m2
00:38 9.9 °C 9.8 °C 1016.1 hPa WSW 12.2 km/h 21.9 km/h 99% 0.0 mm 0 W/m2
00:43 10.0 °C 9.8 °C 1015.8 hPa WSW 5.0 km/h 21.9 km/h 99% 0.0 mm 0 W/m2
00:48 9.9 °C 9.8 °C 1015.8 hPa WSW 6.1 km/h 18.3 km/h 99% 0.0 mm 0 W/m2
00:53 9.9 °C 9.8 °C 1015.8 hPa WSW 11.1 km/h 17.2 km/h 99% 0.0 mm 0 W/m2
00:58 10.0 °C 9.8 °C 1016.1 hPa WSW 6.1 km/h 20.9 km/h 99% 0.0 mm 0 W/m2
01:03 10.0 °C 9.8 °C 1015.8 hPa WSW 5.0 km/h 20.9 km/h 99% 0.0 mm 0 W/m2
01:08 10.0 °C 9.8 °C 1015.8 hPa West 9.7 km/h 19.5 km/h 99% 0.0 mm 0 W/m2
01:13 10.0 °C 9.8 °C 1015.8 hPa WSW 6.1 km/h 19.5 km/h 99% 0.0 mm 0 W/m2
01:18 10.0 °C 9.8 °C 1016.1 hPa WSW 7.2 km/h 18.3 km/h 99% 0.0 mm 0 W/m2
01:23 9.9 °C 9.8 °C 1015.8 hPa WSW 8.7 km/h 17.2 km/h 99% 0.0 mm 0 W/m2
01:28 9.9 °C 9.8 °C 1016.1 hPa WSW 14.8 km/h 21.9 km/h 99% 0.0 mm 0 W/m2
01:33 9.9 °C 9.8 °C 1015.8 hPa WSW 7.2 km/h 21.9 km/h 99% 0.0 mm 0 W/m2
01:38 9.8 °C 9.7 °C 1016.1 hPa West 11.1 km/h 21.9 km/h 99% 0.0 mm 0 W/m2
01:43 9.8 °C 9.7 °C 1016.1 hPa West 8.7 km/h 17.2 km/h 99% 0.3 mm 0 W/m2
01:48 9.8 °C 9.7 °C 1016.1 hPa West 15.8 km/h 19.5 km/h 99% 0.3 mm 0 W/m2
01:53 9.7 °C 9.6 °C 1015.8 hPa West 5.0 km/h 19.5 km/h 99% 0.3 mm 0 W/m2
01:58 9.7 °C 9.6 °C 1016.1 hPa West 9.7 km/h 21.9 km/h 99% 0.3 mm 0 W/m2
02:03 9.7 °C 9.6 °C 1016.1 hPa WNW 7.2 km/h 21.9 km/h 99% 0.3 mm 0 W/m2
02:08 9.7 °C 9.6 °C 1016.1 hPa West 5.0 km/h 20.9 km/h 99% 0.5 mm 0 W/m2
02:13 9.8 °C 9.7 °C 1016.1 hPa WSW 9.7 km/h 20.9 km/h 99% 0.5 mm 0 W/m2
02:18 9.7 °C 9.6 °C 1016.1 hPa WSW 5.0 km/h 17.2 km/h 99% 0.5 mm 0 W/m2
02:23 9.7 °C 9.6 °C 1016.1 hPa WSW 8.7 km/h 17.2 km/h 99% 0.5 mm 0 W/m2
02:28 9.7 °C 9.6 °C 1016.1 hPa WSW 5.0 km/h 17.2 km/h 99% 0.5 mm 0 W/m2
02:33 9.7 °C 9.6 °C 1016.1 hPa West 13.4 km/h 24.5 km/h 99% 0.5 mm 0 W/m2
02:38 9.8 °C 9.7 °C 1016.1 hPa WSW 14.8 km/h 24.5 km/h 99% 0.5 mm 0 W/m2
02:43 9.8 °C 9.7 °C 1016.1 hPa WSW 7.2 km/h 23.3 km/h 99% 0.3 mm 0 W/m2
02:49 9.7 °C 9.6 °C 1016.1 hPa WSW 9.7 km/h 20.9 km/h 99% 0.3 mm 0 W/m2
02:54 9.7 °C 9.6 °C 1016.1 hPa WSW 11.1 km/h 20.9 km/h 99% 0.3 mm 0 W/m2
02:59 9.7 °C 9.6 °C 1016.1 hPa WSW 9.7 km/h 24.5 km/h 99% 0.3 mm 0 W/m2
03:04 9.6 °C 9.4 °C 1016.1 hPa WSW 12.2 km/h 24.5 km/h 99% 0.3 mm 0 W/m2
03:10 9.6 °C 9.4 °C 1016.1 hPa WSW 11.1 km/h 19.5 km/h 99% 0.3 mm 0 W/m2
03:15 9.5 °C 9.3 °C 1016.1 hPa WSW 8.7 km/h 18.3 km/h 99% 0.3 mm 0 W/m2
03:20 9.4 °C 9.3 °C 1016.1 hPa WSW 6.1 km/h 14.8 km/h 99% 0.3 mm 0 W/m2
03:25 9.3 °C 9.2 °C 1016.1 hPa WSW 6.1 km/h 12.2 km/h 99% 0.5 mm 0 W/m2
03:30 9.3 °C 9.2 °C 1016.1 hPa West 2.6 km/h 9.7 km/h 99% 1.0 mm 0 W/m2
03:35 9.2 °C 9.1 °C 1016.1 hPa West 2.6 km/h 11.1 km/h 99% 1.0 mm 0 W/m2
03:40 9.2 °C 9.1 °C 1016.1 hPa Calm   11.1 km/h 99% 1.0 mm 0 W/m2
03:45 9.1 °C 8.9 °C 1015.8 hPa West 3.5 km/h 6.1 km/h 99% 1.3 mm 0 W/m2
03:50 9.1 °C 8.9 °C 1015.8 hPa West 2.6 km/h 7.2 km/h 99% 1.5 mm 0 W/m2
03:55 9.1 °C 8.9 °C 1016.1 hPa West 9.7 km/h 11.1 km/h 99% 1.5 mm 0 W/m2
04:00 9.1 °C 8.9 °C 1016.1 hPa WNW 6.1 km/h 14.8 km/h 99% 1.8 mm 0 W/m2
04:05 9.0 °C 8.8 °C 1015.8 hPa WNW 3.5 km/h 14.8 km/h 99% 1.8 mm 0 W/m2
04:10 9.0 °C 8.8 °C 1015.8 hPa West 5.0 km/h 11.1 km/h 99% 1.8 mm 0 W/m2
04:15 9.0 °C 8.8 °C 1015.8 hPa West 8.7 km/h 17.2 km/h 99% 1.8 mm 0 W/m2
04:20 9.0 °C 8.8 °C 1015.8 hPa West 5.0 km/h 17.2 km/h 99% 1.8 mm 0 W/m2
04:25 9.0 °C 8.8 °C 1015.8 hPa WNW 3.5 km/h 17.2 km/h 99% 1.8 mm 0 W/m2
04:30 9.0 °C 8.8 °C 1015.8 hPa NW 3.5 km/h 7.2 km/h 99% 1.5 mm 0 W/m2
04:35 9.0 °C 8.8 °C 1015.8 hPa WNW 2.6 km/h 9.7 km/h 99% 1.5 mm 0 W/m2
04:40 8.9 °C 8.8 °C 1015.8 hPa WNW 2.6 km/h 9.7 km/h 99% 1.5 mm 0 W/m2
04:41 8.9 °C 8.8 °C 1015.8 hPa NW 5.0 km/h 9.7 km/h 99% 1.5 mm 0 W/m2
04:46 8.9 °C 8.8 °C 1016.1 hPa WNW 5.0 km/h 7.2 km/h 99% 1.3 mm 0 W/m2
04:51 8.9 °C 8.8 °C 1016.1 hPa WNW 3.5 km/h 8.7 km/h 99% 1.0 mm 0 W/m2
04:56 9.0 °C 8.8 °C 1015.8 hPa WNW 2.6 km/h 8.7 km/h 99% 1.0 mm 0 W/m2
05:01 9.0 °C 8.8 °C 1016.1 hPa West 3.5 km/h 9.7 km/h 99% 0.5 mm 0 W/m2
05:06 9.1 °C 8.9 °C 1016.1 hPa West 5.0 km/h 9.7 km/h 99% 0.3 mm 0 W/m2
05:11 9.1 °C 8.9 °C 1016.1 hPa WNW 3.5 km/h 9.7 km/h 99% 0.3 mm 0 W/m2
05:16 9.2 °C 9.1 °C 1016.1 hPa WNW 3.5 km/h 9.7 km/h 99% 0.3 mm 0 W/m2
05:21 9.2 °C 9.1 °C 1016.1 hPa West 3.5 km/h 8.7 km/h 99% 0.3 mm 0 W/m2
05:26 9.1 °C 8.9 °C 1016.1 hPa West 3.5 km/h 8.7 km/h 99% 0.0 mm 0 W/m2
05:31 9.2 °C 9.1 °C 1016.1 hPa WNW 3.5 km/h 7.2 km/h 99% 0.0 mm 0 W/m2
05:36 9.1 °C 8.9 °C 1016.1 hPa West 3.5 km/h 9.7 km/h 99% 0.0 mm 0 W/m2
05:41 9.1 °C 8.9 °C 1016.1 hPa WNW 6.1 km/h 11.1 km/h 99% 0.0 mm 0 W/m2
05:46 9.1 °C 8.9 °C 1016.1 hPa NW 5.0 km/h 11.1 km/h 99% 0.0 mm 0 W/m2
05:51 9.1 °C 8.9 °C 1016.1 hPa NW 5.0 km/h 11.1 km/h 99% 0.0 mm 0 W/m2
05:56 9.0 °C 8.8 °C 1016.1 hPa NNW 3.5 km/h 7.2 km/h 99% 0.0 mm 0 W/m2
06:01 8.9 °C 8.8 °C 1016.1 hPa NNW 5.0 km/h 7.2 km/h 99% 0.0 mm 0 W/m2
06:06 8.8 °C 8.7 °C 1016.1 hPa NW 5.0 km/h 6.1 km/h 99% 0.0 mm 0 W/m2
06:11 8.7 °C 8.6 °C 1016.1 hPa NW 3.5 km/h 7.2 km/h 99% 0.0 mm 0 W/m2
06:16 8.7 °C 8.6 °C 1016.5 hPa NNW 3.5 km/h 7.2 km/h 99% 0.0 mm 0 W/m2
06:21 8.5 °C 8.3 °C 1016.5 hPa NNW 2.6 km/h 6.1 km/h 99% 0.0 mm 0 W/m2
06:26 8.5 °C 8.3 °C 1016.5 hPa NNW 1.1 km/h 5.0 km/h 99% 0.0 mm 0 W/m2
06:31 8.5 °C 8.3 °C 1016.5 hPa NNW 1.1 km/h 5.0 km/h 99% 0.0 mm 0 W/m2
06:36 8.5 °C 8.3 °C 1016.5 hPa North 1.1 km/h 3.5 km/h 99% 0.0 mm 0 W/m2
06:41 8.5 °C 8.3 °C 1016.5 hPa North 2.6 km/h 5.0 km/h 99% 0.0 mm 0 W/m2
06:46 8.5 °C 8.3 °C 1016.5 hPa North 1.1 km/h 6.1 km/h 99% 0.0 mm 0 W/m2
06:51 8.5 °C 8.3 °C 1016.5 hPa North 3.5 km/h 6.1 km/h 99% 0.0 mm 0 W/m2
06:56 8.5 °C 8.3 °C 1016.8 hPa North 2.6 km/h 6.1 km/h 99% 0.0 mm 0 W/m2
07:01 8.5 °C 8.3 °C 1016.8 hPa North 2.6 km/h 6.1 km/h 99% 0.0 mm 0 W/m2
07:06 8.5 °C 8.3 °C 1016.8 hPa North 1.1 km/h 5.0 km/h 99% 0.0 mm 0 W/m2
07:11 8.5 °C 8.3 °C 1016.8 hPa North 3.5 km/h 5.0 km/h 99% 0.0 mm 0 W/m2
07:16 8.5 °C 8.3 °C 1016.8 hPa NNW 2.6 km/h 6.1 km/h 99% 0.0 mm 0 W/m2
07:21 8.5 °C 8.3 °C 1016.8 hPa NNW 5.0 km/h 7.2 km/h 99% 0.0 mm 0 W/m2
07:26 8.5 °C 8.3 °C 1016.8 hPa NW 2.6 km/h 7.2 km/h 99% 0.0 mm 0 W/m2
07:31 8.5 °C 8.3 °C 1016.8 hPa NW 3.5 km/h 11.1 km/h 99% 0.0 mm 0 W/m2
07:36 8.5 °C 8.3 °C 1017.2 hPa NNW 2.6 km/h 11.1 km/h 99% 0.0 mm 0 W/m2
07:41 8.5 °C 8.3 °C 1017.2 hPa NNW 1.1 km/h 7.2 km/h 99% 0.0 mm 0 W/m2
07:46 8.5 °C 8.3 °C 1017.2 hPa North 2.6 km/h 6.1 km/h 99% 0.0 mm 3 W/m2
07:51 8.5 °C 8.3 °C 1017.2 hPa North 2.6 km/h 5.0 km/h 99% 0.0 mm 8 W/m2
07:56 8.7 °C 8.6 °C 1017.2 hPa North 3.5 km/h 5.0 km/h 99% 0.0 mm 16 W/m2
07:58 8.7 °C 8.6 °C 1017.2 hPa North 2.6 km/h 5.0 km/h 99% 0.0 mm 16 W/m2
08:03 8.7 °C 8.6 °C 1017.2 hPa North 1.1 km/h 5.0 km/h 99% 0.0 mm 11 W/m2
08:08 8.7 °C 8.6 °C 1017.2 hPa North 2.6 km/h 3.5 km/h 99% 0.0 mm 12 W/m2
08:13 8.7 °C 8.6 °C 1017.2 hPa NNW 2.6 km/h 5.0 km/h 99% 0.0 mm 13 W/m2
08:18 8.8 °C 8.7 °C 1017.2 hPa NW 2.6 km/h 6.1 km/h 99% 0.0 mm 18 W/m2
08:23 8.8 °C 8.7 °C 1017.2 hPa NW 2.6 km/h 6.1 km/h 99% 0.0 mm 20 W/m2
08:28 8.8 °C 8.7 °C 1017.2 hPa NW 5.0 km/h 7.2 km/h 99% 0.0 mm 27 W/m2
08:33 8.8 °C 8.7 °C 1017.5 hPa NW 2.6 km/h 7.2 km/h 99% 0.0 mm 39 W/m2
08:38 8.9 °C 8.8 °C 1017.2 hPa NW 5.0 km/h 7.2 km/h 99% 0.0 mm 51 W/m2
08:43 9.0 °C 8.8 °C 1017.2 hPa NW 3.5 km/h 7.2 km/h 99% 0.0 mm 62 W/m2
08:48 9.1 °C 8.9 °C 1017.5 hPa NW 2.6 km/h 7.2 km/h 99% 0.0 mm 62 W/m2
08:53 9.3 °C 9.2 °C 1017.5 hPa NNW 2.6 km/h 7.2 km/h 99% 0.0 mm 56 W/m2
08:58 9.5 °C 9.3 °C 1017.5 hPa North 3.5 km/h 7.2 km/h 99% 0.0 mm 68 W/m2
09:03 9.5 °C 9.3 °C 1017.8 hPa North 3.5 km/h 7.2 km/h 99% 0.0 mm 59 W/m2
09:08 9.4 °C 9.3 °C 1017.5 hPa NNW 2.6 km/h 7.2 km/h 99% 0.0 mm 54 W/m2
09:13 9.5 °C 9.3 °C 1017.8 hPa NW 5.0 km/h 7.2 km/h 99% 0.0 mm 62 W/m2
09:18 9.5 °C 9.3 °C 1017.8 hPa NNW 2.6 km/h 6.1 km/h 99% 0.0 mm 70 W/m2
09:23 9.6 °C 9.4 °C 1017.8 hPa NNW 3.5 km/h 6.1 km/h 99% 0.0 mm 74 W/m2
09:28 9.6 °C 9.4 °C 1017.8 hPa NW 3.5 km/h 6.1 km/h 99% 0.0 mm 151 W/m2
09:33 10.1 °C 9.9 °C 1018.2 hPa NW 2.6 km/h 7.2 km/h 99% 0.0 mm 180 W/m2
09:38 10.6 °C 10.4 °C 1018.2 hPa NW 5.0 km/h 7.2 km/h 99% 0.0 mm 218 W/m2
09:43 10.9 °C 10.6 °C 1018.2 hPa NNW 1.1 km/h 8.7 km/h 98% 0.0 mm 136 W/m2
09:48 10.9 °C 10.3 °C 1018.2 hPa NNW 3.5 km/h 8.7 km/h 96% 0.0 mm 124 W/m2
09:53 10.9 °C 10.0 °C 1018.2 hPa NW 2.6 km/h 7.2 km/h 94% 0.0 mm 102 W/m2
09:59 10.9 °C 9.8 °C 1018.2 hPa NW 5.0 km/h 7.2 km/h 93% 0.0 mm 98 W/m2
10:04 10.9 °C 9.7 °C 1018.2 hPa NNW 5.0 km/h 7.2 km/h 92% 0.0 mm 110 W/m2
10:09 11.2 °C 9.8 °C 1018.2 hPa NNW 1.1 km/h 7.2 km/h 91% 0.0 mm 129 W/m2
10:14 11.7 °C 10.3 °C 1018.2 hPa NNW 3.5 km/h 6.1 km/h 91% 0.0 mm 140 W/m2
10:19 11.9 °C 10.2 °C 1018.2 hPa NNW 3.5 km/h 6.1 km/h 89% 0.0 mm 161 W/m2
10:24 12.2 °C 9.9 °C 1018.5 hPa NNW 3.5 km/h 6.1 km/h 86% 0.0 mm 160 W/m2
10:29 13.1 °C 10.7 °C 1018.5 hPa NW 5.0 km/h 6.1 km/h 85% 0.0 mm 159 W/m2
10:34 12.8 °C 10.0 °C 1018.2 hPa NW 3.5 km/h 7.2 km/h 83% 0.0 mm 164 W/m2
10:39 12.4 °C 9.4 °C 1018.2 hPa NW 2.6 km/h 8.7 km/h 82% 0.0 mm 141 W/m2
10:44 12.2 °C 9.4 °C 1018.2 hPa WNW 2.6 km/h 9.7 km/h 83% 0.0 mm 119 W/m2
10:49 12.0 °C 9.2 °C 1018.2 hPa West 1.1 km/h 9.7 km/h 83% 0.0 mm 122 W/m2
10:54 12.0 °C 9.0 °C 1018.2 hPa West 1.1 km/h 8.7 km/h 82% 0.0 mm 134 W/m2
10:59 12.2 °C 9.2 °C 1018.2 hPa West 2.6 km/h 8.7 km/h 82% 0.0 mm 114 W/m2
11:04 12.1 °C 9.1 °C 1018.2 hPa North 3.5 km/h 7.2 km/h 82% 0.0 mm 97 W/m2
11:09 11.7 °C 9.1 °C 1018.2 hPa NNW 6.1 km/h 7.2 km/h 84% 0.0 mm 107 W/m2
11:14 11.4 °C 8.9 °C 1018.2 hPa NW 2.6 km/h 7.2 km/h 85% 0.0 mm 119 W/m2
11:19 11.5 °C 9.2 °C 1018.2 hPa NW 3.5 km/h 8.7 km/h 86% 0.0 mm 137 W/m2
11:24 11.7 °C 9.4 °C 1018.2 hPa NNW 3.5 km/h 8.7 km/h 86% 0.0 mm 141 W/m2
11:29 11.8 °C 9.4 °C 1017.8 hPa NNW 1.1 km/h 7.2 km/h 85% 0.0 mm 127 W/m2
11:34 11.8 °C 9.4 °C 1018.2 hPa NNW 3.5 km/h 8.7 km/h 85% 0.0 mm 129 W/m2
11:39 11.8 °C 9.2 °C 1018.2 hPa North 2.6 km/h 8.7 km/h 84% 0.0 mm 133 W/m2
11:44 12.2 °C 9.6 °C 1017.8 hPa North 2.6 km/h 7.2 km/h 84% 0.0 mm 139 W/m2
11:49 12.1 °C 9.5 °C 1017.8 hPa North 2.6 km/h 6.1 km/h 84% 0.0 mm 148 W/m2
11:54 12.3 °C 9.7 °C 1017.8 hPa North 3.5 km/h 7.2 km/h 84% 0.0 mm 151 W/m2
11:59 12.3 °C 9.5 °C 1017.8 hPa NE 5.0 km/h 7.2 km/h 83% 0.0 mm 137 W/m2
12:04 12.4 °C 9.6 °C 1017.8 hPa NE 5.0 km/h 7.2 km/h 83% 0.0 mm 126 W/m2
12:09 12.2 °C 9.4 °C 1017.8 hPa NNE 1.1 km/h 7.2 km/h 83% 0.0 mm 126 W/m2
12:14 12.3 °C 9.5 °C 1017.8 hPa ENE 3.5 km/h 7.2 km/h 83% 0.0 mm 132 W/m2
12:19 12.4 °C 9.6 °C 1017.5 hPa NE 1.1 km/h 7.2 km/h 83% 0.0 mm 138 W/m2
12:24 12.5 °C 9.5 °C 1017.5 hPa NNE 1.1 km/h 6.1 km/h 82% 0.0 mm 149 W/m2
12:29 12.5 °C 9.3 °C 1017.5 hPa ENE 1.1 km/h 6.1 km/h 81% 0.0 mm 161 W/m2
12:34 12.9 °C 9.7 °C 1017.5 hPa ESE 5.0 km/h 6.1 km/h 81% 0.0 mm 176 W/m2
12:40 13.0 °C 9.4 °C 1017.5 hPa Calm   6.1 km/h 79% 0.0 mm 165 W/m2
12:46 13.1 °C 9.3 °C 1017.5 hPa West 3.5 km/h 7.2 km/h 78% 0.0 mm 159 W/m2
12:51 12.9 °C 8.9 °C 1017.5 hPa WNW 3.5 km/h 7.2 km/h 77% 0.0 mm 159 W/m2
12:56 12.8 °C 8.7 °C 1017.5 hPa West 3.5 km/h 7.2 km/h 76% 0.0 mm 155 W/m2
13:01 12.9 °C 8.4 °C 1017.5 hPa Calm   7.2 km/h 74% 0.0 mm 151 W/m2
13:06 13.0 °C 8.5 °C 1017.5 hPa West 2.6 km/h 6.1 km/h 74% 0.0 mm 156 W/m2
13:11 13.0 °C 8.3 °C 1017.5 hPa Calm   6.1 km/h 73% 0.0 mm 162 W/m2
13:16 13.5 °C 8.9 °C 1017.5 hPa West 2.6 km/h 3.5 km/h 74% 0.0 mm 161 W/m2
13:21 13.7 °C 8.6 °C 1017.5 hPa WSW 1.1 km/h 6.1 km/h 71% 0.0 mm 169 W/m2
13:26 14.0 °C 8.6 °C 1017.5 hPa WSW 2.6 km/h 6.1 km/h 70% 0.0 mm 172 W/m2
13:31 14.4 °C 8.8 °C 1017.5 hPa SW 2.6 km/h 6.1 km/h 69% 0.0 mm 164 W/m2
13:36 14.2 °C 8.6 °C 1017.5 hPa SSW 1.1 km/h 12.2 km/h 69% 0.0 mm 159 W/m2
13:41 14.5 °C 9.1 °C 1017.5 hPa SW 6.1 km/h 12.2 km/h 70% 0.0 mm 147 W/m2
13:47 13.9 °C 8.3 °C 1017.5 hPa SW 5.0 km/h 7.2 km/h 69% 0.0 mm 138 W/m2
13:52 13.7 °C 8.7 °C 1017.2 hPa SSW 3.5 km/h 7.2 km/h 72% 0.0 mm 134 W/m2
13:57 13.5 °C 7.9 °C 1017.5 hPa South 3.5 km/h 8.7 km/h 69% 0.0 mm 131 W/m2
14:02 13.4 °C 7.6 °C 1017.5 hPa South 5.0 km/h 9.7 km/h 68% 0.0 mm 121 W/m2
14:07 13.1 °C 7.8 °C 1017.5 hPa South 6.1 km/h 9.7 km/h 70% 0.0 mm 111 W/m2
14:12 13.1 °C 8.2 °C 1017.5 hPa South 5.0 km/h 8.7 km/h 72% 0.0 mm 106 W/m2
14:17 13.1 °C 8.4 °C 1017.5 hPa South 3.5 km/h 7.2 km/h 73% 0.0 mm 102 W/m2
14:22 13.1 °C 8.2 °C 1017.5 hPa South 2.6 km/h 7.2 km/h 72% 0.0 mm 105 W/m2
14:27 13.2 °C 8.7 °C 1017.5 hPa SSW 3.5 km/h 7.2 km/h 74% 0.0 mm 101 W/m2
14:32 13.2 °C 8.7 °C 1017.5 hPa SSE 3.5 km/h 6.1 km/h 74% 0.0 mm 159 W/m2
14:37 13.9 °C 9.2 °C 1017.5 hPa SE 2.6 km/h 6.1 km/h 73% 0.0 mm 208 W/m2
14:42 14.4 °C 9.0 °C 1017.5 hPa SSE 3.5 km/h 7.2 km/h 70% 0.0 mm 99 W/m2
14:47 13.7 °C 8.6 °C 1017.5 hPa SSE 2.6 km/h 7.2 km/h 71% 0.0 mm 100 W/m2
15:04 13.5 °C 8.2 °C 1017.8 hPa South 3.5 km/h 9.7 km/h 70% 0.0 mm 65 W/m2
15:09 13.1 °C 8.2 °C 1017.8 hPa SSE 6.1 km/h 9.7 km/h 72% 0.0 mm 76 W/m2
15:14 12.9 °C 8.4 °C 1017.8 hPa SSE 3.5 km/h 9.7 km/h 74% 0.0 mm 55 W/m2
15:19 12.7 °C 8.2 °C 1018.2 hPa South 2.6 km/h 9.7 km/h 74% 0.0 mm 71 W/m2
15:24 12.6 °C 8.1 °C 1017.8 hPa South 1.1 km/h 7.2 km/h 74% 0.0 mm 75 W/m2
15:30 12.9 °C 8.6 °C 1017.8 hPa SSW 2.6 km/h 6.1 km/h 75% 0.0 mm 49 W/m2
15:35 12.8 °C 8.5 °C 1017.8 hPa SSW 3.5 km/h 6.1 km/h 75% 0.0 mm 51 W/m2
15:40 12.6 °C 8.3 °C 1018.2 hPa South 2.6 km/h 6.1 km/h 75% 0.0 mm 46 W/m2
15:45 12.5 °C 8.4 °C 1018.2 hPa SSE 1.1 km/h 6.1 km/h 76% 0.0 mm 40 W/m2
15:50 12.5 °C 8.4 °C 1017.8 hPa Calm   5.0 km/h 76% 0.0 mm 36 W/m2
15:55 12.4 °C 8.5 °C 1018.2 hPa Calm   3.5 km/h 77% 0.0 mm 33 W/m2
16:00 12.3 °C 8.6 °C 1018.2 hPa Calm   3.5 km/h 78% 0.0 mm 31 W/m2
16:05 12.1 °C 8.4 °C 1018.2 hPa Calm   2.6 km/h 78% 0.0 mm 29 W/m2
16:10 12.0 °C 8.5 °C 1018.2 hPa Calm   1.1 km/h 79% 0.0 mm 26 W/m2
16:15 11.8 °C 8.7 °C 1018.2 hPa Calm   1.1 km/h 81% 0.0 mm 23 W/m2
16:20 11.7 °C 8.6 °C 1018.2 hPa Calm   1.1 km/h 81% 0.0 mm 20 W/m2
16:25 11.5 °C 8.6 °C 1018.2 hPa Calm   1.1 km/h 82% 0.0 mm 17 W/m2
16:30 11.3 °C 8.3 °C 1018.2 hPa Calm     82% 0.0 mm 13 W/m2
16:35 11.2 °C 8.4 °C 1018.2 hPa Calm     83% 0.0 mm 10 W/m2
16:40 11.2 °C 8.4 °C 1018.5 hPa Calm     83% 0.0 mm 7 W/m2
16:45 11.0 °C 8.4 °C 1018.5 hPa Calm     84% 0.0 mm 4 W/m2
16:50 10.7 °C 8.3 °C 1018.5 hPa Calm   1.1 km/h 85% 0.0 mm 1 W/m2
16:56 10.4 °C 8.2 °C 1018.5 hPa North 1.1 km/h 2.6 km/h 86% 0.0 mm 0 W/m2
17:01 10.1 °C 8.2 °C 1018.5 hPa Calm   2.6 km/h 88% 0.0 mm 0 W/m2
17:06 9.8 °C 8.2 °C 1018.5 hPa Calm   2.6 km/h 90% 0.0 mm 0 W/m2
17:11 9.6 °C 8.1 °C 1018.5 hPa Calm     90% 0.0 mm 0 W/m2
17:16 9.4 °C 8.0 °C 1018.2 hPa Calm   1.1 km/h 91% 0.0 mm 0 W/m2
17:20 9.2 °C 7.9 °C 1018.5 hPa Calm   1.1 km/h 92% 0.0 mm 0 W/m2
17:22 9.1 °C 7.9 °C 1018.5 hPa North 1.1 km/h 2.6 km/h 92% 0.0 mm 0 W/m2
17:27 9.0 °C 7.9 °C 1018.5 hPa NNW 1.1 km/h 2.6 km/h 93% 0.0 mm 0 W/m2
17:32 8.8 °C 8.1 °C 1018.5 hPa NNW 1.1 km/h 2.6 km/h 95% 0.0 mm 0 W/m2
17:37 8.6 °C 7.8 °C 1018.5 hPa NNW 1.1 km/h 2.6 km/h 95% 0.0 mm 0 W/m2
17:42 8.6 °C 8.0 °C 1018.5 hPa North 1.1 km/h 2.6 km/h 96% 0.0 mm 0 W/m2
17:47 8.6 °C 8.2 °C 1018.5 hPa North 2.6 km/h 3.5 km/h 97% 0.0 mm 0 W/m2
17:52 8.4 °C 7.9 °C 1018.5 hPa North 1.1 km/h 3.5 km/h 97% 0.0 mm 0 W/m2
17:57 8.2 °C 7.8 °C 1018.8 hPa North 2.6 km/h 3.5 km/h 97% 0.0 mm 0 W/m2
18:02 8.0 °C 7.7 °C 1018.5 hPa North 1.1 km/h 3.5 km/h 98% 0.0 mm 0 W/m2
18:07 7.9 °C 7.4 °C 1018.8 hPa Calm   3.5 km/h 97% 0.0 mm 0 W/m2
18:12 7.7 °C 7.3 °C 1018.5 hPa Calm   2.6 km/h 97% 0.0 mm 0 W/m2
18:17 7.7 °C 7.3 °C 1018.8 hPa NNE 3.5 km/h 5.0 km/h 97% 0.0 mm 0 W/m2
18:22 7.8 °C 7.3 °C 1018.8 hPa North 1.1 km/h 5.0 km/h 97% 0.0 mm 0 W/m2
18:27 7.7 °C 7.3 °C 1018.8 hPa North 1.1 km/h 5.0 km/h 97% 0.0 mm 0 W/m2
18:32 7.6 °C 7.2 °C 1018.8 hPa North 1.1 km/h 3.5 km/h 97% 0.0 mm 0 W/m2
18:37 7.5 °C 7.1 °C 1019.2 hPa North 2.6 km/h 3.5 km/h 97% 0.0 mm 0 W/m2
18:42 7.4 °C 6.9 °C 1019.2 hPa North 2.6 km/h 5.0 km/h 97% 0.0 mm 0 W/m2
18:47 7.3 °C 6.8 °C 1018.8 hPa North 2.6 km/h 5.0 km/h 97% 0.0 mm 0 W/m2
18:52 7.2 °C 6.8 °C 1019.2 hPa North 1.1 km/h 5.0 km/h 97% 0.0 mm 0 W/m2
18:57 7.2 °C 6.8 °C 1019.2 hPa North 1.1 km/h 3.5 km/h 97% 0.0 mm 0 W/m2
19:02 7.1 °C 6.7 °C 1019.2 hPa North 1.1 km/h 3.5 km/h 97% 0.0 mm 0 W/m2
19:07 7.0 °C 6.6 °C 1019.2 hPa North 1.1 km/h 3.5 km/h 97% 0.0 mm 0 W/m2
19:12 6.9 °C 6.6 °C 1019.2 hPa North 3.5 km/h 5.0 km/h 98% 0.0 mm 0 W/m2
19:17 7.0 °C 6.6 °C 1019.2 hPa North 2.6 km/h 5.0 km/h 97% 0.0 mm 0 W/m2
19:22 6.8 °C 6.5 °C 1019.5 hPa North 2.6 km/h 5.0 km/h 98% 0.0 mm 0 W/m2
19:27 6.7 °C 6.4 °C 1019.5 hPa North 1.1 km/h 5.0 km/h 98% 0.0 mm 0 W/m2
19:32 6.7 °C 6.4 °C 1019.2 hPa North 2.6 km/h 3.5 km/h 98% 0.0 mm 0 W/m2
19:37 6.6 °C 6.3 °C 1019.2 hPa North 2.6 km/h 3.5 km/h 98% 0.0 mm 0 W/m2
19:42 6.7 °C 6.4 °C 1019.5 hPa North 3.5 km/h 5.0 km/h 98% 0.0 mm 0 W/m2
19:47 6.6 °C 6.3 °C 1019.5 hPa North 1.1 km/h 5.0 km/h 98% 0.0 mm 0 W/m2
19:52 6.5 °C 6.2 °C 1019.5 hPa North 2.6 km/h 5.0 km/h 98% 0.0 mm 0 W/m2
19:57 6.5 °C 6.2 °C 1019.5 hPa North 2.6 km/h 5.0 km/h 98% 0.0 mm 0 W/m2
20:02 6.5 °C 6.2 °C 1019.5 hPa North 2.6 km/h 5.0 km/h 98% 0.0 mm 0 W/m2
20:07 6.6 °C 6.3 °C 1019.5 hPa North 2.6 km/h 5.0 km/h 98% 0.0 mm 0 W/m2
20:23 6.5 °C 6.2 °C 1019.5 hPa North 2.6 km/h 3.5 km/h 98% 0.0 mm 0 W/m2
20:28 6.3 °C 6.0 °C 1019.9 hPa North 3.5 km/h 6.1 km/h 98% 0.0 mm 0 W/m2
20:33 6.4 °C 6.1 °C 1019.5 hPa NNW 2.6 km/h 6.1 km/h 98% 0.0 mm 0 W/m2
20:38 6.4 °C 6.1 °C 1019.9 hPa North 2.6 km/h 6.1 km/h 98% 0.0 mm 0 W/m2
20:43 6.3 °C 6.0 °C 1019.9 hPa North 3.5 km/h 6.1 km/h 98% 0.0 mm 0 W/m2
20:48 6.3 °C 6.0 °C 1019.9 hPa NNW 3.5 km/h 6.1 km/h 98% 0.0 mm 0 W/m2
20:53 6.3 °C 6.0 °C 1019.5 hPa NNW 2.6 km/h 5.0 km/h 98% 0.0 mm 0 W/m2
20:58 6.4 °C 6.1 °C 1019.9 hPa NNW 3.5 km/h 6.1 km/h 98% 0.0 mm 0 W/m2
21:03 6.4 °C 6.1 °C 1019.9 hPa NW 2.6 km/h 6.1 km/h 98% 0.0 mm 0 W/m2
21:08 6.5 °C 6.2 °C 1019.9 hPa NW 3.5 km/h 7.2 km/h 98% 0.0 mm 0 W/m2
21:12 6.6 °C 6.3 °C 1019.9 hPa NW 5.0 km/h 8.7 km/h 98% 0.0 mm 0 W/m2
21:17 6.6 °C 6.3 °C 1019.9 hPa NW 5.0 km/h 8.7 km/h 98% 0.0 mm 0 W/m2
21:22 6.6 °C 6.3 °C 1019.9 hPa NW 3.5 km/h 8.7 km/h 98% 0.0 mm 0 W/m2
21:27 6.6 °C 6.3 °C 1019.9 hPa NW 5.0 km/h 8.7 km/h 98% 0.0 mm 0 W/m2
21:32 6.7 °C 6.4 °C 1019.9 hPa NW 3.5 km/h 7.2 km/h 98% 0.0 mm 0 W/m2
21:37 6.7 °C 6.4 °C 1019.9 hPa NW 3.5 km/h 7.2 km/h 98% 0.0 mm 0 W/m2
21:42 6.7 °C 6.4 °C 1019.9 hPa NW 3.5 km/h 6.1 km/h 98% 0.0 mm 0 W/m2
21:47 6.7 °C 6.4 °C 1019.9 hPa NNW 3.5 km/h 7.2 km/h 98% 0.0 mm 0 W/m2
21:52 6.7 °C 6.4 °C 1019.9 hPa NW 2.6 km/h 7.2 km/h 98% 0.0 mm 0 W/m2
21:58 6.7 °C 6.4 °C 1020.2 hPa NNW 6.1 km/h 8.7 km/h 98% 0.0 mm 0 W/m2
22:03 6.7 °C 6.4 °C 1019.9 hPa NNW 3.5 km/h 8.7 km/h 98% 0.0 mm 0 W/m2
22:08 6.8 °C 6.5 °C 1019.9 hPa NNW 3.5 km/h 8.7 km/h 98% 0.0 mm 0 W/m2
22:13 6.8 °C 6.5 °C 1020.2 hPa NNW 2.6 km/h 7.2 km/h 98% 0.0 mm 0 W/m2
22:18 6.9 °C 6.6 °C 1020.2 hPa NNW 5.0 km/h 7.2 km/h 98% 0.0 mm 0 W/m2
22:23 6.9 °C 6.6 °C 1020.2 hPa NNW 3.5 km/h 6.1 km/h 98% 0.0 mm 0 W/m2
22:28 6.9 °C 6.6 °C 1020.2 hPa NW 5.0 km/h 7.2 km/h 98% 0.0 mm 0 W/m2
22:33 6.9 °C 6.6 °C 1020.2 hPa NW 3.5 km/h 7.2 km/h 98% 0.0 mm 0 W/m2
22:38 7.0 °C 6.6 °C 1020.2 hPa NNW 6.1 km/h 8.7 km/h 97% 0.0 mm 0 W/m2
22:43 7.0 °C 6.6 °C 1020.2 hPa NNW 5.0 km/h 8.7 km/h 97% 0.0 mm 0 W/m2
22:48 7.1 °C 6.7 °C 1020.2 hPa NNW 6.1 km/h 8.7 km/h 97% 0.0 mm 0 W/m2
22:53 7.1 °C 6.7 °C 1020.5 hPa NNW 3.5 km/h 8.7 km/h 97% 0.0 mm 0 W/m2
22:58 7.1 °C 6.7 °C 1020.5 hPa NNW 2.6 km/h 7.2 km/h 97% 0.0 mm 0 W/m2
23:03 7.1 °C 6.7 °C 1020.5 hPa NNW 3.5 km/h 6.1 km/h 97% 0.0 mm 0 W/m2
23:08 7.1 °C 6.7 °C 1020.5 hPa NW 3.5 km/h 7.2 km/h 97% 0.0 mm 0 W/m2
23:13 7.1 °C 6.7 °C 1020.5 hPa NNW 5.0 km/h 8.7 km/h 97% 0.0 mm 0 W/m2
23:18 7.1 °C 6.7 °C 1020.5 hPa NNW 6.1 km/h 8.7 km/h 97% 0.0 mm 0 W/m2
23:23 7.1 °C 6.7 °C 1020.5 hPa NNW 5.0 km/h 9.7 km/h 97% 0.0 mm 0 W/m2
23:28 7.1 °C 6.7 °C 1020.5 hPa NNW 6.1 km/h 9.7 km/h 97% 0.0 mm 0 W/m2
23:33 7.2 °C 6.8 °C 1020.5 hPa North 6.1 km/h 9.7 km/h 97% 0.0 mm 0 W/m2
23:38 7.2 °C 6.8 °C 1020.5 hPa NNW 5.0 km/h 9.7 km/h 97% 0.0 mm 0 W/m2
23:43 7.2 °C 6.8 °C 1020.5 hPa NNW 5.0 km/h 9.7 km/h 97% 0.0 mm 0 W/m2
23:48 7.2 °C 6.8 °C 1020.5 hPa North 2.6 km/h 9.7 km/h 97% 0.0 mm 0 W/m2
23:53 7.3 °C 6.8 °C 1020.5 hPa North 3.5 km/h 7.2 km/h 97% 0.0 mm 0 W/m2
23:58 7.3 °C 6.8 °C 1020.5 hPa North 3.5 km/h 9.7 km/h 97% 0.0 mm 0 W/m2
Northern Hawkes Bay. New Zealand Historic Data
Compliments of Weather Underground - 2.25 mb